sensor_id;sensor_type;location;lat;lon;timestamp;P1;durP1;ratioP1;P2;durP2;ratioP2
757;SDS011;363;48.764;9.172;2023-10-19T00:00:38;12.43;;;11.13;;
757;SDS011;363;48.764;9.172;2023-10-19T00:03:09;12.40;;;11.30;;
757;SDS011;363;48.764;9.172;2023-10-19T00:05:35;12.33;;;11.20;;
757;SDS011;363;48.764;9.172;2023-10-19T00:08:01;13.80;;;12.50;;
757;SDS011;363;48.764;9.172;2023-10-19T00:10:47;11.70;;;10.60;;
757;SDS011;363;48.764;9.172;2023-10-19T00:13:32;13.85;;;12.30;;
757;SDS011;363;48.764;9.172;2023-10-19T00:16:01;13.60;;;12.20;;
757;SDS011;363;48.764;9.172;2023-10-19T00:18:32;12.18;;;10.98;;
757;SDS011;363;48.764;9.172;2023-10-19T00:21:00;11.65;;;10.65;;
757;SDS011;363;48.764;9.172;2023-10-19T00:23:44;12.52;;;11.00;;
757;SDS011;363;48.764;9.172;2023-10-19T00:26:14;11.15;;;10.13;;
757;SDS011;363;48.764;9.172;2023-10-19T00:28:43;10.45;;;9.40;;
757;SDS011;363;48.764;9.172;2023-10-19T00:31:10;12.15;;;10.75;;
757;SDS011;363;48.764;9.172;2023-10-19T00:33:37;10.35;;;9.40;;
757;SDS011;363;48.764;9.172;2023-10-19T00:36:09;10.45;;;9.45;;
757;SDS011;363;48.764;9.172;2023-10-19T00:38:38;10.10;;;8.98;;
757;SDS011;363;48.764;9.172;2023-10-19T00:41:05;9.25;;;8.45;;
757;SDS011;363;48.764;9.172;2023-10-19T00:43:35;8.68;;;7.78;;
757;SDS011;363;48.764;9.172;2023-10-19T00:49:06;10.75;;;9.70;;
757;SDS011;363;48.764;9.172;2023-10-19T00:52:07;9.77;;;8.77;;
757;SDS011;363;48.764;9.172;2023-10-19T00:54:45;10.85;;;9.30;;
757;SDS011;363;48.764;9.172;2023-10-19T00:57:18;9.48;;;8.60;;
757;SDS011;363;48.764;9.172;2023-10-19T01:00:03;8.93;;;8.10;;
757;SDS011;363;48.764;9.172;2023-10-19T01:02:37;8.50;;;7.70;;
757;SDS011;363;48.764;9.172;2023-10-19T01:05:08;7.47;;;6.78;;
757;SDS011;363;48.764;9.172;2023-10-19T01:07:38;7.10;;;6.40;;
757;SDS011;363;48.764;9.172;2023-10-19T01:10:04;7.55;;;6.85;;
757;SDS011;363;48.764;9.172;2023-10-19T01:12:37;7.57;;;6.65;;
757;SDS011;363;48.764;9.172;2023-10-19T01:15:16;7.20;;;6.50;;
757;SDS011;363;48.764;9.172;2023-10-19T01:17:49;6.50;;;5.90;;
757;SDS011;363;48.764;9.172;2023-10-19T01:20:22;6.57;;;5.97;;
757;SDS011;363;48.764;9.172;2023-10-19T01:22:58;6.50;;;5.90;;
757;SDS011;363;48.764;9.172;2023-10-19T01:28:22;6.60;;;6.05;;
757;SDS011;363;48.764;9.172;2023-10-19T01:30:53;6.82;;;6.13;;
757;SDS011;363;48.764;9.172;2023-10-19T01:33:20;5.88;;;5.32;;
757;SDS011;363;48.764;9.172;2023-10-19T01:35:48;7.07;;;5.60;;
757;SDS011;363;48.764;9.172;2023-10-19T01:38:32;6.25;;;5.75;;
757;SDS011;363;48.764;9.172;2023-10-19T01:41:01;6.13;;;5.60;;
757;SDS011;363;48.764;9.172;2023-10-19T01:43:32;6.70;;;6.10;;
757;SDS011;363;48.764;9.172;2023-10-19T01:45:58;6.63;;;5.50;;
757;SDS011;363;48.764;9.172;2023-10-19T01:48:36;6.43;;;5.18;;
757;SDS011;363;48.764;9.172;2023-10-19T01:51:04;6.80;;;6.20;;
757;SDS011;363;48.764;9.172;2023-10-19T01:53:33;6.85;;;5.65;;
757;SDS011;363;48.764;9.172;2023-10-19T01:56:05;5.90;;;5.40;;
757;SDS011;363;48.764;9.172;2023-10-19T01:58:35;5.88;;;5.20;;
757;SDS011;363;48.764;9.172;2023-10-19T02:01:05;6.45;;;5.95;;
757;SDS011;363;48.764;9.172;2023-10-19T02:03:37;6.55;;;5.95;;
757;SDS011;363;48.764;9.172;2023-10-19T02:06:07;6.45;;;5.75;;
757;SDS011;363;48.764;9.172;2023-10-19T02:08:55;6.20;;;5.60;;
757;SDS011;363;48.764;9.172;2023-10-19T02:11:26;6.93;;;6.32;;
757;SDS011;363;48.764;9.172;2023-10-19T02:13:54;5.70;;;5.20;;
757;SDS011;363;48.764;9.172;2023-10-19T02:16:25;7.35;;;6.30;;
757;SDS011;363;48.764;9.172;2023-10-19T02:18:51;6.72;;;6.13;;
757;SDS011;363;48.764;9.172;2023-10-19T02:21:18;7.28;;;6.60;;
757;SDS011;363;48.764;9.172;2023-10-19T02:23:50;8.20;;;6.60;;
757;SDS011;363;48.764;9.172;2023-10-19T02:26:17;6.93;;;6.22;;
757;SDS011;363;48.764;9.172;2023-10-19T02:28:45;8.45;;;6.28;;
757;SDS011;363;48.764;9.172;2023-10-19T02:31:11;9.90;;;6.85;;
757;SDS011;363;48.764;9.172;2023-10-19T02:33:41;10.02;;;7.20;;
757;SDS011;363;48.764;9.172;2023-10-19T02:36:10;8.73;;;7.93;;
757;SDS011;363;48.764;9.172;2023-10-19T02:38:40;8.48;;;7.68;;
757;SDS011;363;48.764;9.172;2023-10-19T02:41:08;10.27;;;7.60;;
757;SDS011;363;48.764;9.172;2023-10-19T02:43:35;9.10;;;8.30;;
757;SDS011;363;48.764;9.172;2023-10-19T02:46:01;7.05;;;6.45;;
757;SDS011;363;48.764;9.172;2023-10-19T02:48:28;8.20;;;7.35;;
757;SDS011;363;48.764;9.172;2023-10-19T02:50:54;7.73;;;6.93;;
757;SDS011;363;48.764;9.172;2023-10-19T02:53:20;8.23;;;7.30;;
757;SDS011;363;48.764;9.172;2023-10-19T02:55:46;6.85;;;6.25;;
757;SDS011;363;48.764;9.172;2023-10-19T02:58:11;7.90;;;7.20;;
757;SDS011;363;48.764;9.172;2023-10-19T03:00:38;7.88;;;6.72;;
757;SDS011;363;48.764;9.172;2023-10-19T03:03:05;7.43;;;6.82;;
757;SDS011;363;48.764;9.172;2023-10-19T03:05:31;8.98;;;7.50;;
757;SDS011;363;48.764;9.172;2023-10-19T03:07:59;8.02;;;7.25;;
757;SDS011;363;48.764;9.172;2023-10-19T03:10:30;7.82;;;7.03;;
757;SDS011;363;48.764;9.172;2023-10-19T03:13:06;7.68;;;6.90;;
757;SDS011;363;48.764;9.172;2023-10-19T03:15:33;9.02;;;8.15;;
757;SDS011;363;48.764;9.172;2023-10-19T03:17:58;9.87;;;9.00;;
757;SDS011;363;48.764;9.172;2023-10-19T03:20:26;7.95;;;7.22;;
757;SDS011;363;48.764;9.172;2023-10-19T03:22:58;9.00;;;8.10;;
757;SDS011;363;48.764;9.172;2023-10-19T03:25:27;9.15;;;8.25;;
757;SDS011;363;48.764;9.172;2023-10-19T03:28:11;9.48;;;7.88;;
757;SDS011;363;48.764;9.172;2023-10-19T03:30:37;8.27;;;7.50;;
757;SDS011;363;48.764;9.172;2023-10-19T03:33:13;8.75;;;7.95;;
757;SDS011;363;48.764;9.172;2023-10-19T03:35:43;9.55;;;7.70;;
757;SDS011;363;48.764;9.172;2023-10-19T03:38:17;7.80;;;7.10;;
757;SDS011;363;48.764;9.172;2023-10-19T03:40:47;9.48;;;8.57;;
757;SDS011;363;48.764;9.172;2023-10-19T03:43:24;8.15;;;7.35;;
757;SDS011;363;48.764;9.172;2023-10-19T03:45:53;7.78;;;7.10;;
757;SDS011;363;48.764;9.172;2023-10-19T03:48:20;8.38;;;7.35;;
757;SDS011;363;48.764;9.172;2023-10-19T03:51:01;8.60;;;7.80;;
757;SDS011;363;48.764;9.172;2023-10-19T03:53:27;9.20;;;8.30;;
757;SDS011;363;48.764;9.172;2023-10-19T03:55:53;8.23;;;7.43;;
757;SDS011;363;48.764;9.172;2023-10-19T03:58:20;9.32;;;7.82;;
757;SDS011;363;48.764;9.172;2023-10-19T04:01:06;7.63;;;6.97;;
757;SDS011;363;48.764;9.172;2023-10-19T04:03:32;7.95;;;6.80;;
757;SDS011;363;48.764;9.172;2023-10-19T04:06:01;8.85;;;7.13;;
757;SDS011;363;48.764;9.172;2023-10-19T04:08:29;11.48;;;7.88;;
757;SDS011;363;48.764;9.172;2023-10-19T04:11:04;9.90;;;8.90;;
757;SDS011;363;48.764;9.172;2023-10-19T04:13:36;7.88;;;7.07;;
757;SDS011;363;48.764;9.172;2023-10-19T04:16:02;7.63;;;6.68;;
757;SDS011;363;48.764;9.172;2023-10-19T04:18:27;7.93;;;5.63;;
757;SDS011;363;48.764;9.172;2023-10-19T04:20:53;13.03;;;7.27;;
757;SDS011;363;48.764;9.172;2023-10-19T04:23:19;7.50;;;6.80;;
757;SDS011;363;48.764;9.172;2023-10-19T04:25:52;8.13;;;7.32;;
757;SDS011;363;48.764;9.172;2023-10-19T04:28:28;6.32;;;5.72;;
757;SDS011;363;48.764;9.172;2023-10-19T04:31:03;6.72;;;6.10;;
757;SDS011;363;48.764;9.172;2023-10-19T04:33:31;6.45;;;5.85;;
757;SDS011;363;48.764;9.172;2023-10-19T04:35:57;6.70;;;6.10;;
757;SDS011;363;48.764;9.172;2023-10-19T04:38:25;7.75;;;6.18;;
757;SDS011;363;48.764;9.172;2023-10-19T04:40:51;7.32;;;6.60;;
757;SDS011;363;48.764;9.172;2023-10-19T04:43:17;6.40;;;5.80;;
757;SDS011;363;48.764;9.172;2023-10-19T04:45:43;6.83;;;6.10;;
757;SDS011;363;48.764;9.172;2023-10-19T04:48:09;7.10;;;6.28;;
757;SDS011;363;48.764;9.172;2023-10-19T04:50:35;7.27;;;6.57;;
757;SDS011;363;48.764;9.172;2023-10-19T04:53:01;8.02;;;5.40;;
757;SDS011;363;48.764;9.172;2023-10-19T04:55:28;6.10;;;5.50;;
757;SDS011;363;48.764;9.172;2023-10-19T04:57:55;6.55;;;5.63;;
757;SDS011;363;48.764;9.172;2023-10-19T05:00:21;6.35;;;5.75;;
757;SDS011;363;48.764;9.172;2023-10-19T05:02:49;7.60;;;6.32;;
757;SDS011;363;48.764;9.172;2023-10-19T05:05:17;6.70;;;6.10;;
757;SDS011;363;48.764;9.172;2023-10-19T05:07:43;7.90;;;7.10;;
757;SDS011;363;48.764;9.172;2023-10-19T05:10:14;7.95;;;7.25;;
757;SDS011;363;48.764;9.172;2023-10-19T05:12:42;6.50;;;5.90;;
757;SDS011;363;48.764;9.172;2023-10-19T05:15:07;6.83;;;5.80;;
757;SDS011;363;48.764;9.172;2023-10-19T05:17:36;6.80;;;5.60;;
757;SDS011;363;48.764;9.172;2023-10-19T05:20:01;6.25;;;5.65;;
757;SDS011;363;48.764;9.172;2023-10-19T05:22:30;6.32;;;5.82;;
757;SDS011;363;48.764;9.172;2023-10-19T05:24:57;7.25;;;6.55;;
757;SDS011;363;48.764;9.172;2023-10-19T05:27:23;5.60;;;5.10;;
757;SDS011;363;48.764;9.172;2023-10-19T05:29:48;6.53;;;5.80;;
757;SDS011;363;48.764;9.172;2023-10-19T05:32:14;7.30;;;6.20;;
757;SDS011;363;48.764;9.172;2023-10-19T05:34:39;7.90;;;6.60;;
757;SDS011;363;48.764;9.172;2023-10-19T05:37:05;8.87;;;5.90;;
757;SDS011;363;48.764;9.172;2023-10-19T05:39:31;8.00;;;7.20;;
757;SDS011;363;48.764;9.172;2023-10-19T05:41:58;7.38;;;6.13;;
757;SDS011;363;48.764;9.172;2023-10-19T05:44:25;8.55;;;6.95;;
757;SDS011;363;48.764;9.172;2023-10-19T05:46:55;7.60;;;6.80;;
757;SDS011;363;48.764;9.172;2023-10-19T05:49:21;7.18;;;6.18;;
757;SDS011;363;48.764;9.172;2023-10-19T05:51:49;6.80;;;6.20;;
757;SDS011;363;48.764;9.172;2023-10-19T05:54:14;7.23;;;6.63;;
757;SDS011;363;48.764;9.172;2023-10-19T05:56:41;7.25;;;6.55;;
757;SDS011;363;48.764;9.172;2023-10-19T05:59:10;7.00;;;6.30;;
757;SDS011;363;48.764;9.172;2023-10-19T06:01:36;8.60;;;6.10;;
757;SDS011;363;48.764;9.172;2023-10-19T06:04:02;7.47;;;5.90;;
757;SDS011;363;48.764;9.172;2023-10-19T06:06:28;8.07;;;7.28;;
757;SDS011;363;48.764;9.172;2023-10-19T06:08:54;6.57;;;5.97;;
757;SDS011;363;48.764;9.172;2023-10-19T06:11:20;7.00;;;6.40;;
757;SDS011;363;48.764;9.172;2023-10-19T06:13:46;7.95;;;7.25;;
757;SDS011;363;48.764;9.172;2023-10-19T06:16:12;7.13;;;5.60;;
757;SDS011;363;48.764;9.172;2023-10-19T06:18:39;10.10;;;7.07;;
757;SDS011;363;48.764;9.172;2023-10-19T06:21:08;17.50;;;12.10;;
757;SDS011;363;48.764;9.172;2023-10-19T06:23:35;16.90;;;14.35;;
757;SDS011;363;48.764;9.172;2023-10-19T06:26:08;16.80;;;13.80;;
757;SDS011;363;48.764;9.172;2023-10-19T06:28:38;18.08;;;15.35;;
757;SDS011;363;48.764;9.172;2023-10-19T06:31:05;24.25;;;15.40;;
757;SDS011;363;48.764;9.172;2023-10-19T06:33:33;19.55;;;14.95;;
757;SDS011;363;48.764;9.172;2023-10-19T06:36:00;17.23;;;13.97;;
757;SDS011;363;48.764;9.172;2023-10-19T06:38:28;17.23;;;13.77;;
757;SDS011;363;48.764;9.172;2023-10-19T06:40:54;16.70;;;13.60;;
757;SDS011;363;48.764;9.172;2023-10-19T06:43:19;20.83;;;14.70;;
757;SDS011;363;48.764;9.172;2023-10-19T06:45:48;25.08;;;14.95;;
757;SDS011;363;48.764;9.172;2023-10-19T06:48:14;22.08;;;16.00;;
757;SDS011;363;48.764;9.172;2023-10-19T06:50:41;25.20;;;15.47;;
757;SDS011;363;48.764;9.172;2023-10-19T06:53:07;25.00;;;15.02;;
757;SDS011;363;48.764;9.172;2023-10-19T06:55:32;19.70;;;15.80;;
757;SDS011;363;48.764;9.172;2023-10-19T06:57:58;18.80;;;14.87;;
757;SDS011;363;48.764;9.172;2023-10-19T07:00:27;25.50;;;16.65;;
757;SDS011;363;48.764;9.172;2023-10-19T07:02:54;20.60;;;14.65;;
757;SDS011;363;48.764;9.172;2023-10-19T07:05:25;21.17;;;14.80;;
757;SDS011;363;48.764;9.172;2023-10-19T07:07:54;19.20;;;14.70;;
757;SDS011;363;48.764;9.172;2023-10-19T07:10:21;21.33;;;15.20;;
757;SDS011;363;48.764;9.172;2023-10-19T07:12:50;22.30;;;14.70;;
757;SDS011;363;48.764;9.172;2023-10-19T07:15:18;20.30;;;15.50;;
757;SDS011;363;48.764;9.172;2023-10-19T07:17:44;23.27;;;14.40;;
757;SDS011;363;48.764;9.172;2023-10-19T07:20:11;16.35;;;13.48;;
757;SDS011;363;48.764;9.172;2023-10-19T07:23:08;15.77;;;13.70;;
757;SDS011;363;48.764;9.172;2023-10-19T07:25:47;20.85;;;15.32;;
757;SDS011;363;48.764;9.172;2023-10-19T07:28:19;18.88;;;13.93;;
757;SDS011;363;48.764;9.172;2023-10-19T07:30:45;17.60;;;15.35;;
757;SDS011;363;48.764;9.172;2023-10-19T07:33:16;22.30;;;15.07;;
757;SDS011;363;48.764;9.172;2023-10-19T07:35:42;19.20;;;13.90;;
757;SDS011;363;48.764;9.172;2023-10-19T07:38:11;20.50;;;14.65;;
757;SDS011;363;48.764;9.172;2023-10-19T07:40:38;24.23;;;14.70;;
757;SDS011;363;48.764;9.172;2023-10-19T07:43:04;21.00;;;14.63;;
757;SDS011;363;48.764;9.172;2023-10-19T07:45:30;18.60;;;13.43;;
757;SDS011;363;48.764;9.172;2023-10-19T07:47:59;22.02;;;14.82;;
757;SDS011;363;48.764;9.172;2023-10-19T07:50:31;18.90;;;13.50;;
757;SDS011;363;48.764;9.172;2023-10-19T07:53:00;17.00;;;13.00;;
757;SDS011;363;48.764;9.172;2023-10-19T07:55:27;17.58;;;14.10;;
757;SDS011;363;48.764;9.172;2023-10-19T07:57:56;15.73;;;12.85;;
757;SDS011;363;48.764;9.172;2023-10-19T08:00:25;25.35;;;13.68;;
757;SDS011;363;48.764;9.172;2023-10-19T08:02:54;15.63;;;13.13;;
757;SDS011;363;48.764;9.172;2023-10-19T08:05:20;19.55;;;14.50;;
757;SDS011;363;48.764;9.172;2023-10-19T08:07:46;15.88;;;12.43;;
757;SDS011;363;48.764;9.172;2023-10-19T08:10:13;17.00;;;12.27;;
757;SDS011;363;48.764;9.172;2023-10-19T08:12:41;19.80;;;14.57;;
757;SDS011;363;48.764;9.172;2023-10-19T08:15:11;16.73;;;13.30;;
757;SDS011;363;48.764;9.172;2023-10-19T08:17:38;15.80;;;13.75;;
757;SDS011;363;48.764;9.172;2023-10-19T08:20:05;15.05;;;12.98;;
757;SDS011;363;48.764;9.172;2023-10-19T08:22:34;19.77;;;13.45;;
757;SDS011;363;48.764;9.172;2023-10-19T08:25:03;17.05;;;13.00;;
757;SDS011;363;48.764;9.172;2023-10-19T08:27:36;17.50;;;13.50;;
757;SDS011;363;48.764;9.172;2023-10-19T08:30:17;15.93;;;12.85;;
757;SDS011;363;48.764;9.172;2023-10-19T08:32:44;16.02;;;13.30;;
757;SDS011;363;48.764;9.172;2023-10-19T08:35:13;13.60;;;11.95;;
757;SDS011;363;48.764;9.172;2023-10-19T08:37:39;19.40;;;13.07;;
757;SDS011;363;48.764;9.172;2023-10-19T08:40:09;15.40;;;12.70;;
757;SDS011;363;48.764;9.172;2023-10-19T08:42:43;19.40;;;11.88;;
757;SDS011;363;48.764;9.172;2023-10-19T08:45:10;13.00;;;11.20;;
757;SDS011;363;48.764;9.172;2023-10-19T08:47:48;15.68;;;12.13;;
757;SDS011;363;48.764;9.172;2023-10-19T08:50:30;14.35;;;12.65;;
757;SDS011;363;48.764;9.172;2023-10-19T08:52:57;15.82;;;12.50;;
757;SDS011;363;48.764;9.172;2023-10-19T08:55:24;12.27;;;10.60;;
757;SDS011;363;48.764;9.172;2023-10-19T08:57:51;13.23;;;11.70;;
757;SDS011;363;48.764;9.172;2023-10-19T09:00:17;13.27;;;11.38;;
757;SDS011;363;48.764;9.172;2023-10-19T09:02:47;11.93;;;10.73;;
757;SDS011;363;48.764;9.172;2023-10-19T09:05:13;13.55;;;12.15;;
757;SDS011;363;48.764;9.172;2023-10-19T09:07:48;13.52;;;10.85;;
757;SDS011;363;48.764;9.172;2023-10-19T09:10:24;12.02;;;10.35;;
757;SDS011;363;48.764;9.172;2023-10-19T09:13:02;10.82;;;9.30;;
757;SDS011;363;48.764;9.172;2023-10-19T09:15:37;10.30;;;9.05;;
757;SDS011;363;48.764;9.172;2023-10-19T09:18:23;13.93;;;9.10;;
757;SDS011;363;48.764;9.172;2023-10-19T09:20:50;13.65;;;9.73;;
757;SDS011;363;48.764;9.172;2023-10-19T09:23:35;11.18;;;10.02;;
757;SDS011;363;48.764;9.172;2023-10-19T09:26:01;13.67;;;9.77;;
757;SDS011;363;48.764;9.172;2023-10-19T09:28:36;10.68;;;8.50;;
757;SDS011;363;48.764;9.172;2023-10-19T09:31:05;9.63;;;8.68;;
757;SDS011;363;48.764;9.172;2023-10-19T09:33:34;9.88;;;8.93;;
757;SDS011;363;48.764;9.172;2023-10-19T09:36:03;13.17;;;7.10;;
757;SDS011;363;48.764;9.172;2023-10-19T09:38:38;5.57;;;3.88;;
757;SDS011;363;48.764;9.172;2023-10-19T09:41:13;3.75;;;3.08;;
757;SDS011;363;48.764;9.172;2023-10-19T09:43:43;3.70;;;3.40;;
757;SDS011;363;48.764;9.172;2023-10-19T09:46:24;3.67;;;3.35;;
757;SDS011;363;48.764;9.172;2023-10-19T09:48:54;4.15;;;2.88;;
757;SDS011;363;48.764;9.172;2023-10-19T09:51:21;3.72;;;3.25;;
757;SDS011;363;48.764;9.172;2023-10-19T09:53:49;4.20;;;3.47;;
757;SDS011;363;48.764;9.172;2023-10-19T09:56:38;4.95;;;3.20;;
757;SDS011;363;48.764;9.172;2023-10-19T10:04:32;3.30;;;3.00;;
757;SDS011;363;48.764;9.172;2023-10-19T10:07:00;4.28;;;3.97;;
757;SDS011;363;48.764;9.172;2023-10-19T10:09:37;4.13;;;3.45;;
757;SDS011;363;48.764;9.172;2023-10-19T10:12:17;3.58;;;3.28;;
757;SDS011;363;48.764;9.172;2023-10-19T10:14:56;3.85;;;3.55;;
757;SDS011;363;48.764;9.172;2023-10-19T10:17:26;3.95;;;3.65;;
757;SDS011;363;48.764;9.172;2023-10-19T10:19:56;4.75;;;3.90;;
757;SDS011;363;48.764;9.172;2023-10-19T10:23:39;4.30;;;3.90;;
757;SDS011;363;48.764;9.172;2023-10-19T10:25:52;4.78;;;4.38;;
757;SDS011;363;48.764;9.172;2023-10-19T10:28:23;5.85;;;4.53;;
757;SDS011;363;48.764;9.172;2023-10-19T10:33:41;4.85;;;4.45;;
757;SDS011;363;48.764;9.172;2023-10-19T10:36:20;5.78;;;4.45;;
757;SDS011;363;48.764;9.172;2023-10-19T10:38:47;5.00;;;4.50;;
757;SDS011;363;48.764;9.172;2023-10-19T10:41:19;4.93;;;4.53;;
757;SDS011;363;48.764;9.172;2023-10-19T10:43:51;4.72;;;4.28;;
757;SDS011;363;48.764;9.172;2023-10-19T10:46:19;6.18;;;4.85;;
757;SDS011;363;48.764;9.172;2023-10-19T10:48:49;5.60;;;4.38;;
757;SDS011;363;48.764;9.172;2023-10-19T10:53:49;5.38;;;4.40;;
757;SDS011;363;48.764;9.172;2023-10-19T10:56:17;5.00;;;4.60;;
757;SDS011;363;48.764;9.172;2023-10-19T10:58:44;5.57;;;4.97;;
757;SDS011;363;48.764;9.172;2023-10-19T11:01:10;5.30;;;4.80;;
757;SDS011;363;48.764;9.172;2023-10-19T11:03:36;5.60;;;4.50;;
757;SDS011;363;48.764;9.172;2023-10-19T11:06:03;5.32;;;4.72;;
757;SDS011;363;48.764;9.172;2023-10-19T11:08:29;4.78;;;4.10;;
757;SDS011;363;48.764;9.172;2023-10-19T11:11:01;5.22;;;4.72;;
757;SDS011;363;48.764;9.172;2023-10-19T11:13:33;4.75;;;4.32;;
757;SDS011;363;48.764;9.172;2023-10-19T11:16:00;5.72;;;5.00;;
757;SDS011;363;48.764;9.172;2023-10-19T11:18:29;4.78;;;4.35;;
757;SDS011;363;48.764;9.172;2023-10-19T11:20:59;6.53;;;4.15;;
757;SDS011;363;48.764;9.172;2023-10-19T11:23:36;5.10;;;3.92;;
757;SDS011;363;48.764;9.172;2023-10-19T11:26:02;3.25;;;3.05;;
757;SDS011;363;48.764;9.172;2023-10-19T11:28:30;3.92;;;3.63;;
757;SDS011;363;48.764;9.172;2023-10-19T11:31:11;3.55;;;3.17;;
757;SDS011;363;48.764;9.172;2023-10-19T11:33:38;3.28;;;2.95;;
757;SDS011;363;48.764;9.172;2023-10-19T11:36:04;3.17;;;2.87;;
757;SDS011;363;48.764;9.172;2023-10-19T11:38:32;6.03;;;3.30;;
757;SDS011;363;48.764;9.172;2023-10-19T11:40:58;2.83;;;2.63;;
757;SDS011;363;48.764;9.172;2023-10-19T11:43:27;3.50;;;3.20;;
757;SDS011;363;48.764;9.172;2023-10-19T11:45:52;3.17;;;2.70;;
757;SDS011;363;48.764;9.172;2023-10-19T11:48:21;5.28;;;3.60;;
757;SDS011;363;48.764;9.172;2023-10-19T11:50:49;3.28;;;2.60;;
757;SDS011;363;48.764;9.172;2023-10-19T11:53:15;4.70;;;3.10;;
757;SDS011;363;48.764;9.172;2023-10-19T11:55:45;5.45;;;3.15;;
757;SDS011;363;48.764;9.172;2023-10-19T11:58:13;3.85;;;3.20;;
757;SDS011;363;48.764;9.172;2023-10-19T12:00:39;7.45;;;3.88;;
757;SDS011;363;48.764;9.172;2023-10-19T12:03:08;4.63;;;3.30;;
757;SDS011;363;48.764;9.172;2023-10-19T12:05:35;5.10;;;3.70;;
757;SDS011;363;48.764;9.172;2023-10-19T12:08:02;4.10;;;3.50;;
757;SDS011;363;48.764;9.172;2023-10-19T12:10:31;4.70;;;2.70;;
757;SDS011;363;48.764;9.172;2023-10-19T12:13:04;4.97;;;3.80;;
757;SDS011;363;48.764;9.172;2023-10-19T12:15:34;4.85;;;3.20;;
757;SDS011;363;48.764;9.172;2023-10-19T12:17:59;4.90;;;3.93;;
757;SDS011;363;48.764;9.172;2023-10-19T12:20:27;4.40;;;4.00;;
757;SDS011;363;48.764;9.172;2023-10-19T12:22:56;6.25;;;3.00;;
757;SDS011;363;48.764;9.172;2023-10-19T12:25:22;4.43;;;2.22;;
757;SDS011;363;48.764;9.172;2023-10-19T12:27:57;3.83;;;2.85;;
757;SDS011;363;48.764;9.172;2023-10-19T12:30:31;7.10;;;5.85;;
757;SDS011;363;48.764;9.172;2023-10-19T12:33:00;4.95;;;4.55;;
757;SDS011;363;48.764;9.172;2023-10-19T12:35:26;5.63;;;3.60;;
757;SDS011;363;48.764;9.172;2023-10-19T12:38:09;7.95;;;6.40;;
757;SDS011;363;48.764;9.172;2023-10-19T12:40:41;5.50;;;4.15;;
757;SDS011;363;48.764;9.172;2023-10-19T12:43:07;6.47;;;5.93;;
757;SDS011;363;48.764;9.172;2023-10-19T12:45:35;4.95;;;3.83;;
757;SDS011;363;48.764;9.172;2023-10-19T12:48:04;4.88;;;4.20;;
757;SDS011;363;48.764;9.172;2023-10-19T12:50:31;8.02;;;5.25;;
757;SDS011;363;48.764;9.172;2023-10-19T12:52:59;8.23;;;4.13;;
757;SDS011;363;48.764;9.172;2023-10-19T12:55:25;5.72;;;4.72;;
757;SDS011;363;48.764;9.172;2023-10-19T12:57:52;5.38;;;4.57;;
757;SDS011;363;48.764;9.172;2023-10-19T13:00:22;8.27;;;4.30;;
757;SDS011;363;48.764;9.172;2023-10-19T13:03:04;6.45;;;5.85;;
757;SDS011;363;48.764;9.172;2023-10-19T13:07:59;6.05;;;3.78;;
757;SDS011;363;48.764;9.172;2023-10-19T13:10:28;4.95;;;4.20;;
757;SDS011;363;48.764;9.172;2023-10-19T13:12:59;5.97;;;5.05;;
757;SDS011;363;48.764;9.172;2023-10-19T13:15:29;5.57;;;5.07;;
757;SDS011;363;48.764;9.172;2023-10-19T13:17:56;7.82;;;7.13;;
757;SDS011;363;48.764;9.172;2023-10-19T13:20:24;10.43;;;9.32;;
757;SDS011;363;48.764;9.172;2023-10-19T13:22:51;6.85;;;6.28;;
757;SDS011;363;48.764;9.172;2023-10-19T13:25:17;7.85;;;6.18;;
757;SDS011;363;48.764;9.172;2023-10-19T13:27:53;6.80;;;6.10;;
757;SDS011;363;48.764;9.172;2023-10-19T13:30:21;7.90;;;7.10;;
757;SDS011;363;48.764;9.172;2023-10-19T13:32:48;7.82;;;7.13;;
757;SDS011;363;48.764;9.172;2023-10-19T13:35:14;7.57;;;6.80;;
757;SDS011;363;48.764;9.172;2023-10-19T13:37:42;6.73;;;5.90;;
757;SDS011;363;48.764;9.172;2023-10-19T13:40:11;7.20;;;6.47;;
757;SDS011;363;48.764;9.172;2023-10-19T13:42:37;7.40;;;6.65;;
757;SDS011;363;48.764;9.172;2023-10-19T13:45:03;8.02;;;6.63;;
757;SDS011;363;48.764;9.172;2023-10-19T13:47:29;11.57;;;7.10;;
757;SDS011;363;48.764;9.172;2023-10-19T13:49:58;12.40;;;10.77;;
757;SDS011;363;48.764;9.172;2023-10-19T13:52:25;7.90;;;7.20;;
757;SDS011;363;48.764;9.172;2023-10-19T13:54:50;11.63;;;9.07;;
757;SDS011;363;48.764;9.172;2023-10-19T13:57:16;12.27;;;9.30;;
757;SDS011;363;48.764;9.172;2023-10-19T13:59:41;7.93;;;7.27;;
757;SDS011;363;48.764;9.172;2023-10-19T14:02:07;7.90;;;7.20;;
757;SDS011;363;48.764;9.172;2023-10-19T14:04:33;8.90;;;8.00;;
757;SDS011;363;48.764;9.172;2023-10-19T14:06:58;8.87;;;8.00;;
757;SDS011;363;48.764;9.172;2023-10-19T14:09:24;7.95;;;7.20;;
757;SDS011;363;48.764;9.172;2023-10-19T14:11:51;8.13;;;7.30;;
757;SDS011;363;48.764;9.172;2023-10-19T14:14:18;8.40;;;7.70;;
757;SDS011;363;48.764;9.172;2023-10-19T14:16:43;9.80;;;8.90;;
757;SDS011;363;48.764;9.172;2023-10-19T14:19:11;9.45;;;8.65;;
757;SDS011;363;48.764;9.172;2023-10-19T14:21:39;9.57;;;8.77;;
757;SDS011;363;48.764;9.172;2023-10-19T14:24:05;9.00;;;8.20;;
757;SDS011;363;48.764;9.172;2023-10-19T14:26:33;8.80;;;7.93;;
757;SDS011;363;48.764;9.172;2023-10-19T14:28:59;9.97;;;8.97;;
757;SDS011;363;48.764;9.172;2023-10-19T14:31:24;10.87;;;9.67;;
757;SDS011;363;48.764;9.172;2023-10-19T14:33:51;10.57;;;9.50;;
757;SDS011;363;48.764;9.172;2023-10-19T14:36:17;11.37;;;9.73;;
757;SDS011;363;48.764;9.172;2023-10-19T14:38:43;10.70;;;9.88;;
757;SDS011;363;48.764;9.172;2023-10-19T14:41:11;9.50;;;8.60;;
757;SDS011;363;48.764;9.172;2023-10-19T14:43:39;11.07;;;9.80;;
757;SDS011;363;48.764;9.172;2023-10-19T14:46:05;9.90;;;8.90;;
757;SDS011;363;48.764;9.172;2023-10-19T14:48:36;9.75;;;8.95;;
757;SDS011;363;48.764;9.172;2023-10-19T14:51:01;9.43;;;8.20;;
757;SDS011;363;48.764;9.172;2023-10-19T14:53:27;9.53;;;8.63;;
757;SDS011;363;48.764;9.172;2023-10-19T14:55:56;11.40;;;10.40;;
757;SDS011;363;48.764;9.172;2023-10-19T14:58:24;10.63;;;9.40;;
757;SDS011;363;48.764;9.172;2023-10-19T15:00:51;7.90;;;7.20;;
757;SDS011;363;48.764;9.172;2023-10-19T15:03:24;10.00;;;9.00;;
757;SDS011;363;48.764;9.172;2023-10-19T15:05:50;11.45;;;10.45;;
757;SDS011;363;48.764;9.172;2023-10-19T15:08:17;11.02;;;9.30;;
757;SDS011;363;48.764;9.172;2023-10-19T15:10:44;10.85;;;9.27;;
757;SDS011;363;48.764;9.172;2023-10-19T15:13:10;9.63;;;8.63;;
757;SDS011;363;48.764;9.172;2023-10-19T15:15:35;9.23;;;8.40;;
757;SDS011;363;48.764;9.172;2023-10-19T15:18:01;9.70;;;8.30;;
757;SDS011;363;48.764;9.172;2023-10-19T15:20:29;8.85;;;7.95;;
757;SDS011;363;48.764;9.172;2023-10-19T15:22:58;7.60;;;6.90;;
757;SDS011;363;48.764;9.172;2023-10-19T15:25:24;7.53;;;6.60;;
757;SDS011;363;48.764;9.172;2023-10-19T15:27:50;7.93;;;6.47;;
757;SDS011;363;48.764;9.172;2023-10-19T15:30:16;7.25;;;6.65;;
757;SDS011;363;48.764;9.172;2023-10-19T15:32:45;7.88;;;7.28;;
757;SDS011;363;48.764;9.172;2023-10-19T15:35:14;8.43;;;7.72;;
757;SDS011;363;48.764;9.172;2023-10-19T15:37:45;8.85;;;8.07;;
757;SDS011;363;48.764;9.172;2023-10-19T15:40:16;8.80;;;7.97;;
757;SDS011;363;48.764;9.172;2023-10-19T15:42:42;8.98;;;8.10;;
757;SDS011;363;48.764;9.172;2023-10-19T15:45:11;7.05;;;6.45;;
757;SDS011;363;48.764;9.172;2023-10-19T15:47:38;6.57;;;6.05;;
757;SDS011;363;48.764;9.172;2023-10-19T15:50:08;6.97;;;6.38;;
757;SDS011;363;48.764;9.172;2023-10-19T15:52:34;8.85;;;7.75;;
757;SDS011;363;48.764;9.172;2023-10-19T15:55:02;8.35;;;7.55;;
757;SDS011;363;48.764;9.172;2023-10-19T15:57:28;8.43;;;7.63;;
757;SDS011;363;48.764;9.172;2023-10-19T15:59:55;8.23;;;7.47;;
757;SDS011;363;48.764;9.172;2023-10-19T16:02:21;9.50;;;8.60;;
757;SDS011;363;48.764;9.172;2023-10-19T16:04:46;9.30;;;8.40;;
757;SDS011;363;48.764;9.172;2023-10-19T16:07:13;8.17;;;7.47;;
757;SDS011;363;48.764;9.172;2023-10-19T16:09:40;8.93;;;8.23;;